sensor_id;sensor_type;location;lat;lon;timestamp;P1;durP1;ratioP1;P2;durP2;ratioP2
46563;SDS011;32291;52.010;4.446;2023-07-20T00:00:28;3.33;;;2.88;;
46563;SDS011;32291;52.010;4.446;2023-07-20T00:01:35;3.55;;;3.25;;
46563;SDS011;32291;52.010;4.446;2023-07-20T00:02:41;5.00;;;4.07;;
46563;SDS011;32291;52.010;4.446;2023-07-20T00:03:44;4.88;;;3.75;;
46563;SDS011;32291;52.010;4.446;2023-07-20T00:04:46;4.45;;;3.80;;
46563;SDS011;32291;52.010;4.446;2023-07-20T00:05:48;4.18;;;3.80;;
46563;SDS011;32291;52.010;4.446;2023-07-20T00:06:53;4.38;;;3.78;;
46563;SDS011;32291;52.010;4.446;2023-07-20T00:07:56;6.63;;;4.28;;
46563;SDS011;32291;52.010;4.446;2023-07-20T00:08:58;4.07;;;3.50;;
46563;SDS011;32291;52.010;4.446;2023-07-20T00:10:01;4.25;;;3.95;;
46563;SDS011;32291;52.010;4.446;2023-07-20T00:11:03;5.95;;;4.28;;
46563;SDS011;32291;52.010;4.446;2023-07-20T00:12:10;5.35;;;4.00;;
46563;SDS011;32291;52.010;4.446;2023-07-20T00:13:17;4.93;;;4.10;;
46563;SDS011;32291;52.010;4.446;2023-07-20T00:14:25;5.85;;;4.07;;
46563;SDS011;32291;52.010;4.446;2023-07-20T00:15:27;5.25;;;4.03;;
46563;SDS011;32291;52.010;4.446;2023-07-20T00:16:30;4.78;;;4.38;;
46563;SDS011;32291;52.010;4.446;2023-07-20T00:17:32;4.78;;;4.38;;
46563;SDS011;32291;52.010;4.446;2023-07-20T00:18:39;4.85;;;4.45;;
46563;SDS011;32291;52.010;4.446;2023-07-20T00:19:41;5.43;;;4.63;;
46563;SDS011;32291;52.010;4.446;2023-07-20T00:20:44;4.90;;;4.50;;
46563;SDS011;32291;52.010;4.446;2023-07-20T00:21:51;5.22;;;3.78;;
46563;SDS011;32291;52.010;4.446;2023-07-20T00:22:54;4.55;;;4.15;;
46563;SDS011;32291;52.010;4.446;2023-07-20T00:24:01;4.85;;;4.40;;
46563;SDS011;32291;52.010;4.446;2023-07-20T00:25:03;5.03;;;4.28;;
46563;SDS011;32291;52.010;4.446;2023-07-20T00:26:11;4.75;;;3.90;;
46563;SDS011;32291;52.010;4.446;2023-07-20T00:27:13;4.40;;;4.00;;
46563;SDS011;32291;52.010;4.446;2023-07-20T00:28:15;4.10;;;3.80;;
46563;SDS011;32291;52.010;4.446;2023-07-20T00:29:17;3.83;;;3.53;;
46563;SDS011;32291;52.010;4.446;2023-07-20T00:30:19;4.78;;;3.20;;
46563;SDS011;32291;52.010;4.446;2023-07-20T00:31:22;4.78;;;3.20;;
46563;SDS011;32291;52.010;4.446;2023-07-20T00:32:24;4.43;;;2.80;;
46563;SDS011;32291;52.010;4.446;2023-07-20T00:33:31;4.10;;;3.40;;
46563;SDS011;32291;52.010;4.446;2023-07-20T00:34:38;4.35;;;2.95;;
46563;SDS011;32291;52.010;4.446;2023-07-20T00:35:45;6.22;;;2.83;;
46563;SDS011;32291;52.010;4.446;2023-07-20T00:36:47;3.60;;;3.22;;
46563;SDS011;32291;52.010;4.446;2023-07-20T00:37:50;3.55;;;2.85;;
46563;SDS011;32291;52.010;4.446;2023-07-20T00:38:52;3.30;;;3.00;;
46563;SDS011;32291;52.010;4.446;2023-07-20T00:39:54;3.33;;;3.05;;
46563;SDS011;32291;52.010;4.446;2023-07-20T00:40:56;3.35;;;2.97;;
46563;SDS011;32291;52.010;4.446;2023-07-20T00:41:58;3.60;;;3.15;;
46563;SDS011;32291;52.010;4.446;2023-07-20T00:43:01;2.90;;;2.70;;
46563;SDS011;32291;52.010;4.446;2023-07-20T00:44:04;3.28;;;2.88;;
46563;SDS011;32291;52.010;4.446;2023-07-20T00:45:07;3.33;;;3.03;;
46563;SDS011;32291;52.010;4.446;2023-07-20T00:46:14;2.90;;;2.70;;
46563;SDS011;32291;52.010;4.446;2023-07-20T00:47:17;3.17;;;2.88;;
46563;SDS011;32291;52.010;4.446;2023-07-20T00:48:19;2.88;;;2.50;;
46563;SDS011;32291;52.010;4.446;2023-07-20T00:49:27;4.05;;;2.90;;
46563;SDS011;32291;52.010;4.446;2023-07-20T00:50:34;3.40;;;2.95;;
46563;SDS011;32291;52.010;4.446;2023-07-20T00:51:42;2.83;;;2.60;;
46563;SDS011;32291;52.010;4.446;2023-07-20T00:52:45;4.68;;;2.85;;
46563;SDS011;32291;52.010;4.446;2023-07-20T00:53:52;3.42;;;3.00;;
46563;SDS011;32291;52.010;4.446;2023-07-20T00:54:59;3.95;;;3.58;;
46563;SDS011;32291;52.010;4.446;2023-07-20T00:56:10;3.35;;;2.88;;
46563;SDS011;32291;52.010;4.446;2023-07-20T00:57:17;5.00;;;3.70;;
46563;SDS011;32291;52.010;4.446;2023-07-20T00:58:20;3.20;;;2.90;;
46563;SDS011;32291;52.010;4.446;2023-07-20T00:59:29;4.13;;;3.58;;
46563;SDS011;32291;52.010;4.446;2023-07-20T01:00:39;4.85;;;3.78;;
46563;SDS011;32291;52.010;4.446;2023-07-20T01:01:41;3.60;;;3.30;;
46563;SDS011;32291;52.010;4.446;2023-07-20T01:02:49;3.63;;;3.33;;
46563;SDS011;32291;52.010;4.446;2023-07-20T01:03:57;4.22;;;3.33;;
46563;SDS011;32291;52.010;4.446;2023-07-20T01:04:59;3.70;;;3.40;;
46563;SDS011;32291;52.010;4.446;2023-07-20T01:06:14;4.10;;;3.55;;
46563;SDS011;32291;52.010;4.446;2023-07-20T01:10:22;4.38;;;3.97;;
46563;SDS011;32291;52.010;4.446;2023-07-20T01:11:38;3.33;;;3.08;;
46563;SDS011;32291;52.010;4.446;2023-07-20T01:13:03;3.92;;;3.10;;
46563;SDS011;32291;52.010;4.446;2023-07-20T01:14:15;2.95;;;2.65;;
46563;SDS011;32291;52.010;4.446;2023-07-20T01:15:23;3.42;;;3.10;;
46563;SDS011;32291;52.010;4.446;2023-07-20T01:16:31;2.95;;;2.75;;
46563;SDS011;32291;52.010;4.446;2023-07-20T01:17:34;3.53;;;2.67;;
46563;SDS011;32291;52.010;4.446;2023-07-20T01:18:42;3.30;;;2.65;;
46563;SDS011;32291;52.010;4.446;2023-07-20T01:19:49;3.42;;;2.85;;
46563;SDS011;32291;52.010;4.446;2023-07-20T01:21:00;3.90;;;2.40;;
46563;SDS011;32291;52.010;4.446;2023-07-20T01:27:16;2.45;;;2.22;;
46563;SDS011;32291;52.010;4.446;2023-07-20T01:28:48;2.25;;;1.70;;
46563;SDS011;32291;52.010;4.446;2023-07-20T01:31:59;1.70;;;1.52;;
46563;SDS011;32291;52.010;4.446;2023-07-20T01:33:05;1.80;;;1.38;;
46563;SDS011;32291;52.010;4.446;2023-07-20T01:34:12;2.05;;;1.50;;
46563;SDS011;32291;52.010;4.446;2023-07-20T01:35:26;1.50;;;1.30;;
46563;SDS011;32291;52.010;4.446;2023-07-20T01:36:37;2.13;;;1.30;;
46563;SDS011;32291;52.010;4.446;2023-07-20T01:37:40;2.05;;;1.42;;
46563;SDS011;32291;52.010;4.446;2023-07-20T01:38:52;1.70;;;1.10;;
46563;SDS011;32291;52.010;4.446;2023-07-20T01:39:55;1.40;;;1.30;;
46563;SDS011;32291;52.010;4.446;2023-07-20T01:41:03;1.23;;;1.13;;
46563;SDS011;32291;52.010;4.446;2023-07-20T01:42:11;2.05;;;1.58;;
46563;SDS011;32291;52.010;4.446;2023-07-20T01:43:19;1.77;;;1.33;;
46563;SDS011;32291;52.010;4.446;2023-07-20T01:44:21;1.73;;;1.02;;
46563;SDS011;32291;52.010;4.446;2023-07-20T01:45:30;1.40;;;1.30;;
46563;SDS011;32291;52.010;4.446;2023-07-20T01:46:33;1.30;;;1.20;;
46563;SDS011;32291;52.010;4.446;2023-07-20T01:47:39;1.23;;;1.13;;
46563;SDS011;32291;52.010;4.446;2023-07-20T01:48:47;1.23;;;1.10;;
46563;SDS011;32291;52.010;4.446;2023-07-20T01:49:53;1.70;;;1.27;;
46563;SDS011;32291;52.010;4.446;2023-07-20T01:50:55;1.25;;;1.00;;
46563;SDS011;32291;52.010;4.446;2023-07-20T01:51:58;1.30;;;1.20;;
46563;SDS011;32291;52.010;4.446;2023-07-20T01:53:03;1.70;;;1.40;;
46563;SDS011;32291;52.010;4.446;2023-07-20T01:54:05;1.60;;;1.50;;
46563;SDS011;32291;52.010;4.446;2023-07-20T01:55:07;1.20;;;1.10;;
46563;SDS011;32291;52.010;4.446;2023-07-20T01:56:15;1.73;;;1.40;;
46563;SDS011;32291;52.010;4.446;2023-07-20T01:57:22;1.20;;;1.20;;
46563;SDS011;32291;52.010;4.446;2023-07-20T01:58:24;3.97;;;1.25;;
46563;SDS011;32291;52.010;4.446;2023-07-20T01:59:27;1.30;;;1.20;;
46563;SDS011;32291;52.010;4.446;2023-07-20T02:00:29;1.70;;;1.13;;
46563;SDS011;32291;52.010;4.446;2023-07-20T02:01:39;2.05;;;1.20;;
46563;SDS011;32291;52.010;4.446;2023-07-20T02:02:46;1.92;;;1.10;;
46563;SDS011;32291;52.010;4.446;2023-07-20T02:03:48;2.05;;;1.33;;
46563;SDS011;32291;52.010;4.446;2023-07-20T02:04:55;1.33;;;1.00;;
46563;SDS011;32291;52.010;4.446;2023-07-20T02:06:02;1.27;;;1.10;;
46563;SDS011;32291;52.010;4.446;2023-07-20T02:07:09;2.10;;;1.10;;
46563;SDS011;32291;52.010;4.446;2023-07-20T02:08:11;1.70;;;1.20;;
46563;SDS011;32291;52.010;4.446;2023-07-20T02:09:13;2.75;;;1.20;;
46563;SDS011;32291;52.010;4.446;2023-07-20T02:10:15;2.30;;;1.30;;
46563;SDS011;32291;52.010;4.446;2023-07-20T02:11:22;2.90;;;0.98;;
46563;SDS011;32291;52.010;4.446;2023-07-20T02:12:29;1.60;;;1.17;;
46563;SDS011;32291;52.010;4.446;2023-07-20T02:13:32;1.20;;;1.10;;
46563;SDS011;32291;52.010;4.446;2023-07-20T02:14:38;1.10;;;1.00;;
46563;SDS011;32291;52.010;4.446;2023-07-20T02:15:41;1.10;;;0.90;;
46563;SDS011;32291;52.010;4.446;2023-07-20T02:16:44;1.02;;;0.95;;
46563;SDS011;32291;52.010;4.446;2023-07-20T02:17:51;1.70;;;1.00;;
46563;SDS011;32291;52.010;4.446;2023-07-20T02:18:53;2.55;;;1.20;;
46563;SDS011;32291;52.010;4.446;2023-07-20T02:20:03;2.10;;;0.90;;
46563;SDS011;32291;52.010;4.446;2023-07-20T02:21:05;1.35;;;0.80;;
46563;SDS011;32291;52.010;4.446;2023-07-20T02:22:12;1.38;;;1.00;;
46563;SDS011;32291;52.010;4.446;2023-07-20T02:23:19;4.32;;;1.10;;
46563;SDS011;32291;52.010;4.446;2023-07-20T02:24:26;3.45;;;1.10;;
46563;SDS011;32291;52.010;4.446;2023-07-20T02:25:28;2.08;;;0.80;;
46563;SDS011;32291;52.010;4.446;2023-07-20T02:26:30;1.50;;;0.80;;
46563;SDS011;32291;52.010;4.446;2023-07-20T02:27:35;1.25;;;0.90;;
46563;SDS011;32291;52.010;4.446;2023-07-20T02:28:44;0.90;;;0.85;;
46563;SDS011;32291;52.010;4.446;2023-07-20T02:29:46;1.70;;;1.00;;
46563;SDS011;32291;52.010;4.446;2023-07-20T02:30:48;5.47;;;1.40;;
46563;SDS011;32291;52.010;4.446;2023-07-20T02:31:51;2.28;;;1.00;;
46563;SDS011;32291;52.010;4.446;2023-07-20T02:32:58;1.33;;;0.90;;
46563;SDS011;32291;52.010;4.446;2023-07-20T02:34:00;1.45;;;0.90;;
46563;SDS011;32291;52.010;4.446;2023-07-20T02:35:03;1.55;;;1.23;;
46563;SDS011;32291;52.010;4.446;2023-07-20T02:36:05;1.10;;;1.00;;
46563;SDS011;32291;52.010;4.446;2023-07-20T02:37:12;1.63;;;1.00;;
46563;SDS011;32291;52.010;4.446;2023-07-20T02:38:19;0.80;;;0.80;;
46563;SDS011;32291;52.010;4.446;2023-07-20T02:39:22;1.02;;;0.95;;
46563;SDS011;32291;52.010;4.446;2023-07-20T02:40:24;1.05;;;1.05;;
46563;SDS011;32291;52.010;4.446;2023-07-20T02:41:32;1.13;;;1.02;;
46563;SDS011;32291;52.010;4.446;2023-07-20T02:42:35;1.02;;;0.90;;
46563;SDS011;32291;52.010;4.446;2023-07-20T02:43:42;1.33;;;0.75;;
46563;SDS011;32291;52.010;4.446;2023-07-20T02:44:49;2.40;;;1.30;;
46563;SDS011;32291;52.010;4.446;2023-07-20T02:45:51;1.45;;;0.90;;
46563;SDS011;32291;52.010;4.446;2023-07-20T02:46:59;1.20;;;1.02;;
46563;SDS011;32291;52.010;4.446;2023-07-20T02:48:06;3.35;;;1.10;;
46563;SDS011;32291;52.010;4.446;2023-07-20T02:49:14;1.35;;;1.10;;
46563;SDS011;32291;52.010;4.446;2023-07-20T02:50:17;2.25;;;1.20;;
46563;SDS011;32291;52.010;4.446;2023-07-20T02:51:24;2.83;;;1.05;;
46563;SDS011;32291;52.010;4.446;2023-07-20T02:52:31;1.15;;;1.05;;
46563;SDS011;32291;52.010;4.446;2023-07-20T02:53:38;1.48;;;1.38;;
46563;SDS011;32291;52.010;4.446;2023-07-20T02:54:45;1.63;;;1.05;;
46563;SDS011;32291;52.010;4.446;2023-07-20T02:55:47;1.27;;;1.15;;
46563;SDS011;32291;52.010;4.446;2023-07-20T02:56:49;2.30;;;1.13;;
46563;SDS011;32291;52.010;4.446;2023-07-20T02:57:52;1.85;;;1.05;;
46563;SDS011;32291;52.010;4.446;2023-07-20T02:58:54;2.25;;;1.13;;
46563;SDS011;32291;52.010;4.446;2023-07-20T02:59:56;3.00;;;1.17;;
46563;SDS011;32291;52.010;4.446;2023-07-20T03:01:03;1.42;;;1.10;;
46563;SDS011;32291;52.010;4.446;2023-07-20T03:02:05;1.80;;;1.20;;
46563;SDS011;32291;52.010;4.446;2023-07-20T03:03:11;1.52;;;1.10;;
46563;SDS011;32291;52.010;4.446;2023-07-20T03:04:18;1.45;;;1.20;;
46563;SDS011;32291;52.010;4.446;2023-07-20T03:05:20;2.10;;;1.30;;
46563;SDS011;32291;52.010;4.446;2023-07-20T03:06:31;1.38;;;1.20;;
46563;SDS011;32291;52.010;4.446;2023-07-20T03:07:37;1.35;;;1.25;;
46563;SDS011;32291;52.010;4.446;2023-07-20T03:08:40;2.30;;;1.33;;
46563;SDS011;32291;52.010;4.446;2023-07-20T03:09:53;1.00;;;0.85;;
46563;SDS011;32291;52.010;4.446;2023-07-20T03:10:56;1.33;;;1.15;;
46563;SDS011;32291;52.010;4.446;2023-07-20T03:11:58;2.00;;;0.90;;
46563;SDS011;32291;52.010;4.446;2023-07-20T03:13:00;1.42;;;1.23;;
46563;SDS011;32291;52.010;4.446;2023-07-20T03:14:07;3.42;;;1.52;;
46563;SDS011;32291;52.010;4.446;2023-07-20T03:15:10;1.85;;;1.35;;
46563;SDS011;32291;52.010;4.446;2023-07-20T03:16:12;1.90;;;1.60;;
46563;SDS011;32291;52.010;4.446;2023-07-20T03:17:19;1.52;;;1.42;;
46563;SDS011;32291;52.010;4.446;2023-07-20T03:18:22;1.63;;;1.35;;
46563;SDS011;32291;52.010;4.446;2023-07-20T03:19:29;2.45;;;1.17;;
46563;SDS011;32291;52.010;4.446;2023-07-20T03:20:36;1.92;;;1.48;;
46563;SDS011;32291;52.010;4.446;2023-07-20T03:21:39;1.38;;;1.25;;
46563;SDS011;32291;52.010;4.446;2023-07-20T03:22:42;1.58;;;1.27;;
46563;SDS011;32291;52.010;4.446;2023-07-20T03:23:44;1.30;;;1.20;;
46563;SDS011;32291;52.010;4.446;2023-07-20T03:24:46;1.83;;;1.50;;
46563;SDS011;32291;52.010;4.446;2023-07-20T03:25:53;1.45;;;1.35;;
46563;SDS011;32291;52.010;4.446;2023-07-20T03:27:01;1.98;;;1.23;;
46563;SDS011;32291;52.010;4.446;2023-07-20T03:28:03;1.45;;;1.10;;
46563;SDS011;32291;52.010;4.446;2023-07-20T03:29:06;1.23;;;1.13;;
46563;SDS011;32291;52.010;4.446;2023-07-20T03:30:08;2.15;;;1.48;;
46563;SDS011;32291;52.010;4.446;2023-07-20T03:31:13;2.90;;;1.40;;
46563;SDS011;32291;52.010;4.446;2023-07-20T03:32:21;1.33;;;1.20;;
46563;SDS011;32291;52.010;4.446;2023-07-20T03:33:26;1.65;;;1.55;;
46563;SDS011;32291;52.010;4.446;2023-07-20T03:34:30;2.00;;;1.40;;
46563;SDS011;32291;52.010;4.446;2023-07-20T03:35:32;2.17;;;1.30;;
46563;SDS011;32291;52.010;4.446;2023-07-20T03:36:35;1.50;;;1.40;;
46563;SDS011;32291;52.010;4.446;2023-07-20T03:37:42;1.60;;;1.50;;
46563;SDS011;32291;52.010;4.446;2023-07-20T03:38:49;1.75;;;1.42;;
46563;SDS011;32291;52.010;4.446;2023-07-20T03:39:52;1.63;;;1.52;;
46563;SDS011;32291;52.010;4.446;2023-07-20T03:40:55;2.88;;;1.50;;
46563;SDS011;32291;52.010;4.446;2023-07-20T03:42:04;1.83;;;1.30;;
46563;SDS011;32291;52.010;4.446;2023-07-20T03:43:15;1.80;;;1.40;;
46563;SDS011;32291;52.010;4.446;2023-07-20T03:44:25;2.85;;;1.92;;
46563;SDS011;32291;52.010;4.446;2023-07-20T03:45:32;2.08;;;1.77;;
46563;SDS011;32291;52.010;4.446;2023-07-20T03:46:34;2.38;;;1.90;;
46563;SDS011;32291;52.010;4.446;2023-07-20T03:47:41;2.05;;;1.60;;
46563;SDS011;32291;52.010;4.446;2023-07-20T03:48:43;3.22;;;1.60;;
46563;SDS011;32291;52.010;4.446;2023-07-20T03:49:50;2.15;;;1.55;;
46563;SDS011;32291;52.010;4.446;2023-07-20T03:50:53;1.50;;;1.40;;
46563;SDS011;32291;52.010;4.446;2023-07-20T03:51:56;1.85;;;1.20;;
46563;SDS011;32291;52.010;4.446;2023-07-20T03:52:58;1.33;;;1.23;;
46563;SDS011;32291;52.010;4.446;2023-07-20T03:54:01;3.72;;;1.40;;
46563;SDS011;32291;52.010;4.446;2023-07-20T03:55:08;2.33;;;1.42;;
46563;SDS011;32291;52.010;4.446;2023-07-20T03:56:10;1.98;;;1.42;;
46563;SDS011;32291;52.010;4.446;2023-07-20T03:57:13;1.88;;;1.65;;
46563;SDS011;32291;52.010;4.446;2023-07-20T03:58:15;1.50;;;1.40;;
46563;SDS011;32291;52.010;4.446;2023-07-20T03:59:19;1.88;;;1.77;;
46563;SDS011;32291;52.010;4.446;2023-07-20T04:00:22;1.70;;;1.60;;
46563;SDS011;32291;52.010;4.446;2023-07-20T04:01:24;1.77;;;1.67;;
46563;SDS011;32291;52.010;4.446;2023-07-20T04:02:26;3.20;;;1.60;;
46563;SDS011;32291;52.010;4.446;2023-07-20T04:03:28;1.65;;;1.55;;
46563;SDS011;32291;52.010;4.446;2023-07-20T04:04:32;2.00;;;1.55;;
46563;SDS011;32291;52.010;4.446;2023-07-20T04:05:34;1.92;;;1.50;;
46563;SDS011;32291;52.010;4.446;2023-07-20T04:06:41;1.50;;;1.40;;
46563;SDS011;32291;52.010;4.446;2023-07-20T04:07:45;2.05;;;1.85;;
46563;SDS011;32291;52.010;4.446;2023-07-20T04:08:52;1.85;;;1.60;;
46563;SDS011;32291;52.010;4.446;2023-07-20T04:09:59;2.13;;;2.03;;
46563;SDS011;32291;52.010;4.446;2023-07-20T04:11:02;1.85;;;1.75;;
46563;SDS011;32291;52.010;4.446;2023-07-20T04:12:04;2.10;;;1.98;;
46563;SDS011;32291;52.010;4.446;2023-07-20T04:13:07;2.38;;;1.90;;
46563;SDS011;32291;52.010;4.446;2023-07-20T04:14:09;2.33;;;1.92;;
46563;SDS011;32291;52.010;4.446;2023-07-20T04:15:12;2.83;;;1.90;;
46563;SDS011;32291;52.010;4.446;2023-07-20T04:16:15;1.98;;;1.88;;
46563;SDS011;32291;52.010;4.446;2023-07-20T04:17:22;2.15;;;1.88;;
46563;SDS011;32291;52.010;4.446;2023-07-20T04:18:24;1.98;;;1.83;;
46563;SDS011;32291;52.010;4.446;2023-07-20T04:19:26;3.22;;;2.30;;
46563;SDS011;32291;52.010;4.446;2023-07-20T04:20:33;1.90;;;1.70;;
46563;SDS011;32291;52.010;4.446;2023-07-20T04:21:39;2.30;;;2.10;;
46563;SDS011;32291;52.010;4.446;2023-07-20T04:22:45;2.28;;;2.08;;
46563;SDS011;32291;52.010;4.446;2023-07-20T04:23:47;3.40;;;2.10;;
46563;SDS011;32291;52.010;4.446;2023-07-20T04:24:54;2.70;;;2.25;;
46563;SDS011;32291;52.010;4.446;2023-07-20T04:26:01;3.72;;;1.75;;
46563;SDS011;32291;52.010;4.446;2023-07-20T04:27:08;1.98;;;1.88;;
46563;SDS011;32291;52.010;4.446;2023-07-20T04:28:15;2.33;;;2.00;;
46563;SDS011;32291;52.010;4.446;2023-07-20T04:29:17;2.22;;;1.85;;
46563;SDS011;32291;52.010;4.446;2023-07-20T04:30:19;3.05;;;2.20;;
46563;SDS011;32291;52.010;4.446;2023-07-20T04:31:27;4.32;;;2.00;;
46563;SDS011;32291;52.010;4.446;2023-07-20T04:32:34;3.70;;;2.15;;
46563;SDS011;32291;52.010;4.446;2023-07-20T04:33:36;1.90;;;1.80;;
46563;SDS011;32291;52.010;4.446;2023-07-20T04:34:43;2.00;;;1.70;;
46563;SDS011;32291;52.010;4.446;2023-07-20T04:35:49;3.75;;;1.98;;
46563;SDS011;32291;52.010;4.446;2023-07-20T04:36:59;2.63;;;2.03;;
46563;SDS011;32291;52.010;4.446;2023-07-20T04:38:01;2.13;;;1.90;;
46563;SDS011;32291;52.010;4.446;2023-07-20T04:39:04;2.88;;;2.10;;
46563;SDS011;32291;52.010;4.446;2023-07-20T04:40:12;3.10;;;1.98;;
46563;SDS011;32291;52.010;4.446;2023-07-20T04:41:22;2.30;;;2.10;;
46563;SDS011;32291;52.010;4.446;2023-07-20T04:42:24;2.85;;;1.98;;
46563;SDS011;32291;52.010;4.446;2023-07-20T04:43:27;2.15;;;2.05;;
46563;SDS011;32291;52.010;4.446;2023-07-20T04:44:35;2.95;;;2.47;;
46563;SDS011;32291;52.010;4.446;2023-07-20T04:45:42;2.75;;;2.55;;
46563;SDS011;32291;52.010;4.446;2023-07-20T04:46:49;2.35;;;2.15;;
46563;SDS011;32291;52.010;4.446;2023-07-20T04:47:51;4.93;;;3.03;;
46563;SDS011;32291;52.010;4.446;2023-07-20T04:48:54;4.97;;;3.10;;
46563;SDS011;32291;52.010;4.446;2023-07-20T04:50:00;3.60;;;3.00;;
46563;SDS011;32291;52.010;4.446;2023-07-20T04:51:03;4.05;;;3.20;;
46563;SDS011;32291;52.010;4.446;2023-07-20T04:52:05;3.53;;;2.97;;
46563;SDS011;32291;52.010;4.446;2023-07-20T04:53:12;3.33;;;2.78;;
46563;SDS011;32291;52.010;4.446;2023-07-20T04:54:20;3.60;;;3.17;;
46563;SDS011;32291;52.010;4.446;2023-07-20T04:55:22;4.05;;;2.78;;
46563;SDS011;32291;52.010;4.446;2023-07-20T04:56:28;4.53;;;3.10;;
46563;SDS011;32291;52.010;4.446;2023-07-20T04:57:31;4.25;;;3.13;;
46563;SDS011;32291;52.010;4.446;2023-07-20T04:58:34;3.00;;;2.75;;
46563;SDS011;32291;52.010;4.446;2023-07-20T04:59:36;3.78;;;3.20;;
46563;SDS011;32291;52.010;4.446;2023-07-20T05:00:38;3.42;;;3.00;;
46563;SDS011;32291;52.010;4.446;2023-07-20T05:01:45;3.75;;;3.45;;
46563;SDS011;32291;52.010;4.446;2023-07-20T05:02:52;4.88;;;3.20;;
46563;SDS011;32291;52.010;4.446;2023-07-20T05:03:59;3.55;;;3.20;;
46563;SDS011;32291;52.010;4.446;2023-07-20T05:05:06;3.55;;;2.97;;
46563;SDS011;32291;52.010;4.446;2023-07-20T05:06:13;3.90;;;3.13;;
46563;SDS011;32291;52.010;4.446;2023-07-20T05:07:16;4.45;;;3.42;;
46563;SDS011;32291;52.010;4.446;2023-07-20T05:08:18;4.93;;;4.03;;
46563;SDS011;32291;52.010;4.446;2023-07-20T05:09:20;5.57;;;3.70;;
46563;SDS011;32291;52.010;4.446;2023-07-20T05:10:23;4.68;;;4.15;;
46563;SDS011;32291;52.010;4.446;2023-07-20T05:11:25;3.88;;;3.22;;
46563;SDS011;32291;52.010;4.446;2023-07-20T05:12:32;6.32;;;3.80;;
46563;SDS011;32291;52.010;4.446;2023-07-20T05:13:40;3.33;;;3.03;;
46563;SDS011;32291;52.010;4.446;2023-07-20T05:14:46;3.88;;;3.10;;
46563;SDS011;32291;52.010;4.446;2023-07-20T05:15:53;4.82;;;3.40;;
46563;SDS011;32291;52.010;4.446;2023-07-20T05:17:01;4.18;;;3.53;;
46563;SDS011;32291;52.010;4.446;2023-07-20T05:18:08;5.63;;;3.28;;
46563;SDS011;32291;52.010;4.446;2023-07-20T05:19:15;5.18;;;3.90;;
46563;SDS011;32291;52.010;4.446;2023-07-20T05:20:17;3.72;;;3.42;;
46563;SDS011;32291;52.010;4.446;2023-07-20T05:21:22;4.65;;;3.80;;
46563;SDS011;32291;52.010;4.446;2023-07-20T05:22:25;3.47;;;3.17;;
46563;SDS011;32291;52.010;4.446;2023-07-20T05:23:31;4.00;;;3.45;;
46563;SDS011;32291;52.010;4.446;2023-07-20T05:24:33;3.95;;;3.55;;
46563;SDS011;32291;52.010;4.446;2023-07-20T05:25:40;3.38;;;3.15;;
46563;SDS011;32291;52.010;4.446;2023-07-20T05:26:48;4.00;;;3.70;;
46563;SDS011;32291;52.010;4.446;2023-07-20T05:27:51;4.60;;;3.65;;
46563;SDS011;32291;52.010;4.446;2023-07-20T05:28:58;7.28;;;4.13;;
46563;SDS011;32291;52.010;4.446;2023-07-20T05:30:00;4.47;;;4.07;;
46563;SDS011;32291;52.010;4.446;2023-07-20T05:31:03;6.28;;;4.30;;
46563;SDS011;32291;52.010;4.446;2023-07-20T05:32:06;4.15;;;3.63;;
46563;SDS011;32291;52.010;4.446;2023-07-20T05:33:13;4.13;;;3.78;;
46563;SDS011;32291;52.010;4.446;2023-07-20T05:34:15;4.47;;;3.67;;
46563;SDS011;32291;52.010;4.446;2023-07-20T05:35:18;4.00;;;3.55;;
46563;SDS011;32291;52.010;4.446;2023-07-20T05:36:20;4.47;;;3.42;;
46563;SDS011;32291;52.010;4.446;2023-07-20T05:37:22;3.92;;;3.53;;
46563;SDS011;32291;52.010;4.446;2023-07-20T05:38:24;4.85;;;4.18;;
46563;SDS011;32291;52.010;4.446;2023-07-20T05:39:27;4.60;;;4.20;;
46563;SDS011;32291;52.010;4.446;2023-07-20T05:40:36;4.22;;;3.58;;
46563;SDS011;32291;52.010;4.446;2023-07-20T05:41:44;4.22;;;3.92;;
46563;SDS011;32291;52.010;4.446;2023-07-20T05:42:46;4.20;;;3.90;;
46563;SDS011;32291;52.010;4.446;2023-07-20T05:43:54;3.50;;;3.10;;
46563;SDS011;32291;52.010;4.446;2023-07-20T05:45:01;4.13;;;3.67;;
46563;SDS011;32291;52.010;4.446;2023-07-20T05:46:04;4.03;;;3.72;;
46563;SDS011;32291;52.010;4.446;2023-07-20T05:47:06;3.97;;;3.67;;
46563;SDS011;32291;52.010;4.446;2023-07-20T05:48:13;3.65;;;3.35;;
46563;SDS011;32291;52.010;4.446;2023-07-20T05:49:15;4.90;;;3.63;;
46563;SDS011;32291;52.010;4.446;2023-07-20T05:50:17;4.82;;;3.20;;
46563;SDS011;32291;52.010;4.446;2023-07-20T05:51:24;3.33;;;2.90;;
46563;SDS011;32291;52.010;4.446;2023-07-20T05:52:31;3.55;;;3.17;;
46563;SDS011;32291;52.010;4.446;2023-07-20T05:53:38;3.65;;;3.35;;
46563;SDS011;32291;52.010;4.446;2023-07-20T05:54:41;5.40;;;4.05;;
46563;SDS011;32291;52.010;4.446;2023-07-20T05:55:43;4.13;;;3.03;;
46563;SDS011;32291;52.010;4.446;2023-07-20T05:56:50;4.18;;;3.53;;
46563;SDS011;32291;52.010;4.446;2023-07-20T05:57:52;3.20;;;2.97;;
46563;SDS011;32291;52.010;4.446;2023-07-20T05:58:57;3.90;;;2.88;;
46563;SDS011;32291;52.010;4.446;2023-07-20T06:00:04;3.65;;;3.35;;
46563;SDS011;32291;52.010;4.446;2023-07-20T06:01:13;4.72;;;3.50;;
46563;SDS011;32291;52.010;4.446;2023-07-20T06:02:15;4.28;;;3.60;;
46563;SDS011;32291;52.010;4.446;2023-07-20T06:03:22;3.78;;;3.47;;
46563;SDS011;32291;52.010;4.446;2023-07-20T06:04:25;5.32;;;3.90;;
46563;SDS011;32291;52.010;4.446;2023-07-20T06:05:31;4.25;;;3.88;;
46563;SDS011;32291;52.010;4.446;2023-07-20T06:06:38;5.55;;;3.20;;
46563;SDS011;32291;52.010;4.446;2023-07-20T06:07:45;4.10;;;3.75;;
46563;SDS011;32291;52.010;4.446;2023-07-20T06:08:52;3.90;;;3.50;;
46563;SDS011;32291;52.010;4.446;2023-07-20T06:09:59;4.50;;;3.45;;
46563;SDS011;32291;52.010;4.446;2023-07-20T06:11:01;3.33;;;3.03;;
46563;SDS011;32291;52.010;4.446;2023-07-20T06:12:08;2.85;;;2.65;;
46563;SDS011;32291;52.010;4.446;2023-07-20T06:13:15;4.03;;;3.00;;
46563;SDS011;32291;52.010;4.446;2023-07-20T06:14:17;3.35;;;3.05;;
46563;SDS011;32291;52.010;4.446;2023-07-20T06:15:33;3.63;;;2.70;;
46563;SDS011;32291;52.010;4.446;2023-07-20T06:16:40;2.80;;;2.60;;
46563;SDS011;32291;52.010;4.446;2023-07-20T06:17:42;4.05;;;2.63;;
46563;SDS011;32291;52.010;4.446;2023-07-20T06:18:44;2.55;;;2.35;;
46563;SDS011;32291;52.010;4.446;2023-07-20T06:19:51;2.22;;;2.03;;
46563;SDS011;32291;52.010;4.446;2023-07-20T06:20:58;2.95;;;1.98;;
46563;SDS011;32291;52.010;4.446;2023-07-20T06:22:00;2.33;;;2.13;;
46563;SDS011;32291;52.010;4.446;2023-07-20T06:23:08;2.50;;;2.10;;
46563;SDS011;32291;52.010;4.446;2023-07-20T06:24:16;3.08;;;2.55;;
46563;SDS011;32291;52.010;4.446;2023-07-20T06:25:19;2.75;;;2.55;;
46563;SDS011;32291;52.010;4.446;2023-07-20T06:26:22;2.97;;;2.25;;
46563;SDS011;32291;52.010;4.446;2023-07-20T06:27:32;2.40;;;2.13;;
46563;SDS011;32291;52.010;4.446;2023-07-20T06:28:39;3.20;;;2.33;;
46563;SDS011;32291;52.010;4.446;2023-07-20T06:29:41;5.18;;;2.35;;
46563;SDS011;32291;52.010;4.446;2023-07-20T06:30:43;4.88;;;2.60;;
46563;SDS011;32291;52.010;4.446;2023-07-20T06:31:50;3.00;;;2.70;;
46563;SDS011;32291;52.010;4.446;2023-07-20T06:32:53;2.95;;;2.65;;
46563;SDS011;32291;52.010;4.446;2023-07-20T06:33:59;2.75;;;2.53;;
46563;SDS011;32291;52.010;4.446;2023-07-20T06:35:07;3.58;;;2.40;;
46563;SDS011;32291;52.010;4.446;2023-07-20T06:36:09;3.00;;;2.70;;
46563;SDS011;32291;52.010;4.446;2023-07-20T06:37:12;4.05;;;3.63;;
46563;SDS011;32291;52.010;4.446;2023-07-20T06:38:19;3.42;;;3.13;;
46563;SDS011;32291;52.010;4.446;2023-07-20T06:39:26;4.50;;;4.10;;
46563;SDS011;32291;52.010;4.446;2023-07-20T06:40:33;4.07;;;3.78;;
46563;SDS011;32291;52.010;4.446;2023-07-20T06:41:40;5.85;;;4.10;;
46563;SDS011;32291;52.010;4.446;2023-07-20T06:42:47;3.85;;;3.55;;